Ride Results

Portland Endurance 2009 (20-06-2009)
Ride distance: 80.0 km

Outcomes - Portland Endurance 2009 (20-06-2009)
Division No. of Entries Retired / DNE Completed Withdrawn Ineligible V/O Percentage Completed
HW 3 - 2 - - 1 66.67%
MW 9 - 7 - - 2 77.78%
LW 11 - 8 - - 3 72.73%
JN 4 - 3 - - 1 75.00%
Totals 27 - 20 - - 7 74.07%
Results - Portland Endurance 2009 (20-06-2009)
No. Rider Horse Place Time Leg Speeds Total
Km/Hr
H/R bpm
Heavyweight
196 Jeremy Ford Jemma 1 (BC) 6:01:00 14.3, 12.3 13.30 32, 55, 48 (Avg:51)
36 Chris Webb Kalody Park Shubek 2 8:01:00 10.0, 9.8 9.98 37, 46, 57 (Avg:51)
137 John Shoobridge Fantasia Heart Rate L2 0:00:00 16.6, 16.3 - 41, 54, 76 (Avg:65)
Middleweight
38 Tony Purton Beer Street Dimity 1 (BC) 5:17:00 16.5, 13.9 15.14 32, 47, 42 (Avg:44)
68 Janine Parr Madame Pandora 2 6:21:00 13.8, 11.5 12.60 33, 43, 51 (Avg:47)
169 Brent Marshall Meganja Park Mowgli 3 7:12:00 11.5, 10.6 11.11 34, 44, 52 (Avg:48)
188 Christine Brown Dial Range Shard 4 7:40:00 10.6, 10.2 10.43 36, 48, 50 (Avg:49)
143 Pauline Goodwin Royale Special Cola 5 7:56:00 10.3, 9.7 10.08 37, 44, 49 (Avg:46)
58 Tammy Miller Crystalyn Golden Angel 5 7:56:00 10.3, 9.7 10.08 38, 43, 52 (Avg:47)
102 Keryn Mahoney Tonki Dee Boo Cheers 7 8:01:00 10.0, 9.8 9.98 36, 43, 52 (Avg:47)
15 Sonia Brown-Cordell Ausden Anastacia Lame L2 0:00:00 12.6, 13.4 - 35, 42, 52 (Avg:47)
180 Nicole Ford Saaremaa Park Safi Latif Heart Rate L1 0:00:00 10.5 - 37, 64 (Avg:64)
Lightweight
200 Debbie Grull Lauralyn Notorious 1 (BC) 4:51:00 16.4, 16.5 16.49 36, 49, 50 (Avg:49)
136 Kaye Mitchell Beer Street Bluewitch 2 5:17:00 16.5, 13.9 15.14 37, 43, 46 (Avg:44)
48 Toni Sheehan Nabowla Nook Nite 3 6:21:00 14.3, 11.2 12.60 32, 47, 48 (Avg:47)
118 Danielle Coleman Magic Summer Rose 4 7:12:00 11.5, 10.6 11.11 46, 40, 48 (Avg:44)
113 Janelle Dancer Lockleigh Park Star 5 7:40:00 10.4, 10.4 10.43 35, 41, 49 (Avg:45)
100 Trish Smith Beaucheval Akhiran 5 7:40:00 11.0, 9.9 10.43 37, 48, 58 (Avg:53)
1 Ann Richards Kintamani Sahir 7 8:01:00 10.5, 9.4 9.98 37, 44, 51 (Avg:47)
117 Penny Lasdauskas Wendy Lalani 8 8:32:00 10.1, 8.7 9.38 32, 46, 46 (Avg:46)
37 Jen Clingly Imaj Zamir Metabolics non-invasive L2 0:00:00 14.3, 10.7 - 31, 40, 50 (Avg:45)
51 Debbie Leary Baring Court Ivory Lame L2 0:00:00 11.5, 10.6 - 43, 40, 48 (Avg:44)
77 Alison Lockhart Kantar Abia Park Ilona Lame L2 0:00:00 10.4, 10.4 - 36, 44, 49 (Avg:46)
Junior
79 Shannon Hill Glendhu Judah 1 (BC) 6:11:00 14.8, 11.4 12.94 36, 47, 52 (Avg:49)
78 Brad Hill Summer Breeze 2 7:39:00 10.4, 10.4 10.46 32, 50, 52 (Avg:51)
186 Josie Lazdauskas Bindi 3 8:32:00 10.1, 8.7 9.38 36, 41, 50 (Avg:45)
125 Brooke Brown-Cordell Yondover Ridge Mojo Lame L2 0:00:00 13.0, 13.0 - 37, 45, 52 (Avg:48)